sensor_id;sensor_type;location;lat;lon;timestamp;pressure;altitude;pressure_sealevel;temperature;humidity
24336;BME280;33098;52.400;16.880;2023-10-13T00:00:34;100733.00;;;12.60;100.00
24336;BME280;33098;52.400;16.880;2023-10-13T00:03:23;100737.81;;;12.75;100.00
24336;BME280;33098;52.400;16.880;2023-10-13T00:05:51;100738.91;;;12.77;100.00
24336;BME280;33098;52.400;16.880;2023-10-13T00:08:19;100738.29;;;12.80;100.00
24336;BME280;33098;52.400;16.880;2023-10-13T00:10:47;100745.41;;;12.95;100.00
24336;BME280;33098;52.400;16.880;2023-10-13T00:13:14;100746.58;;;13.05;100.00
24336;BME280;33098;52.400;16.880;2023-10-13T00:15:43;100751.95;;;13.05;100.00
24336;BME280;33098;52.400;16.880;2023-10-13T00:18:17;100748.17;;;13.01;100.00
24336;BME280;33098;52.400;16.880;2023-10-13T00:20:45;100747.33;;;12.96;100.00
24336;BME280;33098;52.400;16.880;2023-10-13T00:23:15;100743.65;;;13.01;100.00
24336;BME280;33098;52.400;16.880;2023-10-13T00:25:53;100747.53;;;13.13;100.00
24336;BME280;33098;52.400;16.880;2023-10-13T00:28:24;100749.70;;;13.14;100.00
24336;BME280;33098;52.400;16.880;2023-10-13T00:30:54;100749.47;;;13.15;100.00
24336;BME280;33098;52.400;16.880;2023-10-13T00:33:28;100749.80;;;13.11;100.00
24336;BME280;33098;52.400;16.880;2023-10-13T00:35:55;100752.01;;;13.06;100.00
24336;BME280;33098;52.400;16.880;2023-10-13T00:38:24;100753.83;;;13.01;100.00
24336;BME280;33098;52.400;16.880;2023-10-13T00:40:51;100755.16;;;12.94;100.00
24336;BME280;33098;52.400;16.880;2023-10-13T00:43:20;100754.95;;;12.95;100.00
24336;BME280;33098;52.400;16.880;2023-10-13T00:45:54;100752.97;;;12.95;100.00
24336;BME280;33098;52.400;16.880;2023-10-13T00:50:57;100748.70;;;12.99;100.00
24336;BME280;33098;52.400;16.880;2023-10-13T00:53:25;100744.98;;;13.05;100.00
24336;BME280;33098;52.400;16.880;2023-10-13T00:55:52;100745.05;;;13.04;100.00
24336;BME280;33098;52.400;16.880;2023-10-13T00:58:23;100743.26;;;12.98;100.00
24336;BME280;33098;52.400;16.880;2023-10-13T01:00:51;100741.73;;;12.90;100.00
24336;BME280;33098;52.400;16.880;2023-10-13T01:03:45;100734.66;;;12.83;100.00
24336;BME280;33098;52.400;16.880;2023-10-13T01:06:12;100726.30;;;12.81;100.00
24336;BME280;33098;52.400;16.880;2023-10-13T01:08:40;100724.89;;;12.94;100.00
24336;BME280;33098;52.400;16.880;2023-10-13T01:11:10;100724.46;;;12.97;100.00
24336;BME280;33098;52.400;16.880;2023-10-13T01:13:37;100723.55;;;12.90;100.00
24336;BME280;33098;52.400;16.880;2023-10-13T01:16:03;100720.55;;;12.84;100.00
24336;BME280;33098;52.400;16.880;2023-10-13T01:18:34;100716.88;;;12.81;100.00
24336;BME280;33098;52.400;16.880;2023-10-13T01:21:17;100714.06;;;12.87;100.00
24336;BME280;33098;52.400;16.880;2023-10-13T01:23:46;100715.56;;;12.97;100.00
24336;BME280;33098;52.400;16.880;2023-10-13T01:26:14;100710.36;;;12.97;100.00
24336;BME280;33098;52.400;16.880;2023-10-13T01:28:51;100709.69;;;12.97;100.00
24336;BME280;33098;52.400;16.880;2023-10-13T01:31:21;100706.16;;;13.02;100.00
24336;BME280;33098;52.400;16.880;2023-10-13T01:33:56;100707.34;;;13.03;100.00
24336;BME280;33098;52.400;16.880;2023-10-13T01:36:28;100708.53;;;12.98;100.00
24336;BME280;33098;52.400;16.880;2023-10-13T01:39:01;100699.27;;;12.91;100.00
24336;BME280;33098;52.400;16.880;2023-10-13T01:41:28;100691.49;;;12.97;100.00
24336;BME280;33098;52.400;16.880;2023-10-13T01:43:57;100686.39;;;13.15;100.00
24336;BME280;33098;52.400;16.880;2023-10-13T01:46:23;100683.94;;;13.31;100.00
24336;BME280;33098;52.400;16.880;2023-10-13T01:48:50;100699.95;;;13.42;100.00
24336;BME280;33098;52.400;16.880;2023-10-13T01:51:20;100712.56;;;13.53;100.00
24336;BME280;33098;52.400;16.880;2023-10-13T01:53:49;100712.73;;;13.53;100.00
24336;BME280;33098;52.400;16.880;2023-10-13T01:56:22;100710.21;;;13.37;100.00
24336;BME280;33098;52.400;16.880;2023-10-13T01:58:56;100707.06;;;13.34;100.00
24336;BME280;33098;52.400;16.880;2023-10-13T02:01:23;100701.71;;;13.47;100.00
24336;BME280;33098;52.400;16.880;2023-10-13T02:03:56;100705.92;;;13.49;100.00
24336;BME280;33098;52.400;16.880;2023-10-13T02:06:33;100708.09;;;13.39;100.00
24336;BME280;33098;52.400;16.880;2023-10-13T02:09:05;100715.02;;;13.28;100.00
24336;BME280;33098;52.400;16.880;2023-10-13T02:11:44;100717.30;;;13.22;100.00
24336;BME280;33098;52.400;16.880;2023-10-13T02:14:13;100720.34;;;13.18;100.00
24336;BME280;33098;52.400;16.880;2023-10-13T02:16:43;100721.61;;;13.20;100.00
24336;BME280;33098;52.400;16.880;2023-10-13T02:19:13;100716.06;;;13.24;100.00
24336;BME280;33098;52.400;16.880;2023-10-13T02:21:42;100709.39;;;13.30;100.00
24336;BME280;33098;52.400;16.880;2023-10-13T02:24:11;100703.70;;;13.42;100.00
24336;BME280;33098;52.400;16.880;2023-10-13T02:26:44;100711.63;;;13.41;100.00
24336;BME280;33098;52.400;16.880;2023-10-13T02:29:11;100725.12;;;13.38;100.00
24336;BME280;33098;52.400;16.880;2023-10-13T02:31:42;100719.19;;;13.36;100.00
24336;BME280;33098;52.400;16.880;2023-10-13T02:34:09;100716.35;;;13.38;100.00
24336;BME280;33098;52.400;16.880;2023-10-13T02:36:39;100725.39;;;13.37;100.00
24336;BME280;33098;52.400;16.880;2023-10-13T02:39:18;100719.98;;;13.31;100.00
24336;BME280;33098;52.400;16.880;2023-10-13T02:41:54;100725.70;;;13.29;100.00
24336;BME280;33098;52.400;16.880;2023-10-13T02:44:22;100725.02;;;13.24;100.00
24336;BME280;33098;52.400;16.880;2023-10-13T02:46:57;100723.28;;;13.23;100.00
24336;BME280;33098;52.400;16.880;2023-10-13T02:49:26;100716.48;;;13.26;100.00
24336;BME280;33098;52.400;16.880;2023-10-13T02:51:53;100710.80;;;13.34;100.00
24336;BME280;33098;52.400;16.880;2023-10-13T02:54:26;100707.73;;;13.39;100.00
24336;BME280;33098;52.400;16.880;2023-10-13T02:56:58;100703.57;;;13.39;100.00
24336;BME280;33098;52.400;16.880;2023-10-13T02:59:26;100697.05;;;13.37;100.00
24336;BME280;33098;52.400;16.880;2023-10-13T03:02:13;100698.27;;;13.41;100.00
24336;BME280;33098;52.400;16.880;2023-10-13T03:04:56;100702.17;;;13.37;100.00
24336;BME280;33098;52.400;16.880;2023-10-13T03:07:27;100699.45;;;13.29;100.00
24336;BME280;33098;52.400;16.880;2023-10-13T03:09:59;100696.74;;;13.21;100.00
24336;BME280;33098;52.400;16.880;2023-10-13T03:12:39;100698.30;;;13.19;100.00
24336;BME280;33098;52.400;16.880;2023-10-13T03:15:06;100698.71;;;13.21;100.00
24336;BME280;33098;52.400;16.880;2023-10-13T03:17:44;100696.77;;;13.27;100.00
24336;BME280;33098;52.400;16.880;2023-10-13T03:20:15;100702.52;;;13.37;100.00
24336;BME280;33098;52.400;16.880;2023-10-13T03:22:43;100700.61;;;13.39;100.00
24336;BME280;33098;52.400;16.880;2023-10-13T03:25:13;100702.97;;;13.38;100.00
24336;BME280;33098;52.400;16.880;2023-10-13T03:27:56;100704.52;;;13.32;100.00
24336;BME280;33098;52.400;16.880;2023-10-13T03:30:23;100703.04;;;13.31;100.00
24336;BME280;33098;52.400;16.880;2023-10-13T03:32:57;100701.98;;;13.37;100.00
24336;BME280;33098;52.400;16.880;2023-10-13T03:35:23;100704.66;;;13.45;100.00
24336;BME280;33098;52.400;16.880;2023-10-13T03:37:53;100701.68;;;13.49;100.00
24336;BME280;33098;52.400;16.880;2023-10-13T03:40:23;100704.39;;;13.47;100.00
24336;BME280;33098;52.400;16.880;2023-10-13T03:42:55;100697.73;;;13.41;100.00
24336;BME280;33098;52.400;16.880;2023-10-13T03:45:44;100697.13;;;13.46;100.00
24336;BME280;33098;52.400;16.880;2023-10-13T03:48:16;100698.27;;;13.51;100.00
24336;BME280;33098;52.400;16.880;2023-10-13T03:50:53;100694.01;;;13.53;100.00
24336;BME280;33098;52.400;16.880;2023-10-13T03:53:39;100692.29;;;13.52;100.00
24336;BME280;33098;52.400;16.880;2023-10-13T03:56:20;100694.45;;;13.54;100.00
24336;BME280;33098;52.400;16.880;2023-10-13T03:59:07;100686.85;;;13.62;100.00
24336;BME280;33098;52.400;16.880;2023-10-13T04:01:36;100678.36;;;13.63;100.00
24336;BME280;33098;52.400;16.880;2023-10-13T04:04:19;100676.79;;;13.73;100.00
24336;BME280;33098;52.400;16.880;2023-10-13T04:07:01;100670.25;;;13.80;100.00
24336;BME280;33098;52.400;16.880;2023-10-13T04:09:28;100668.45;;;13.85;100.00
24336;BME280;33098;52.400;16.880;2023-10-13T04:12:02;100670.73;;;13.81;100.00
24336;BME280;33098;52.400;16.880;2023-10-13T04:14:29;100675.48;;;13.78;100.00
24336;BME280;33098;52.400;16.880;2023-10-13T04:17:15;100666.06;;;13.83;100.00
24336;BME280;33098;52.400;16.880;2023-10-13T04:19:42;100663.91;;;13.85;100.00
24336;BME280;33098;52.400;16.880;2023-10-13T04:22:27;100662.09;;;13.84;100.00
24336;BME280;33098;52.400;16.880;2023-10-13T04:25:23;100659.01;;;13.90;100.00
24336;BME280;33098;52.400;16.880;2023-10-13T04:28:06;100653.36;;;13.96;100.00
24336;BME280;33098;52.400;16.880;2023-10-13T04:33:25;100647.56;;;13.99;100.00
24336;BME280;33098;52.400;16.880;2023-10-13T04:36:04;100648.36;;;13.94;100.00
24336;BME280;33098;52.400;16.880;2023-10-13T04:38:41;100648.46;;;13.82;100.00
24336;BME280;33098;52.400;16.880;2023-10-13T04:41:31;100642.72;;;13.75;100.00
24336;BME280;33098;52.400;16.880;2023-10-13T04:44:03;100639.02;;;13.78;100.00
24336;BME280;33098;52.400;16.880;2023-10-13T04:46:49;100642.09;;;13.80;100.00
24336;BME280;33098;52.400;16.880;2023-10-13T04:49:16;100640.42;;;13.77;100.00
24336;BME280;33098;52.400;16.880;2023-10-13T04:51:56;100636.50;;;13.75;100.00
24336;BME280;33098;52.400;16.880;2023-10-13T04:54:30;100633.63;;;13.77;100.00
24336;BME280;33098;52.400;16.880;2023-10-13T04:57:01;100637.12;;;13.78;100.00
24336;BME280;33098;52.400;16.880;2023-10-13T04:59:47;100637.58;;;13.78;100.00
24336;BME280;33098;52.400;16.880;2023-10-13T05:02:33;100636.61;;;13.77;100.00
24336;BME280;33098;52.400;16.880;2023-10-13T05:05:03;100633.19;;;13.82;100.00
24336;BME280;33098;52.400;16.880;2023-10-13T05:07:30;100638.02;;;13.85;100.00
24336;BME280;33098;52.400;16.880;2023-10-13T05:10:15;100636.46;;;13.83;100.00
24336;BME280;33098;52.400;16.880;2023-10-13T05:13:14;100635.74;;;13.75;100.00
24336;BME280;33098;52.400;16.880;2023-10-13T05:16:00;100636.27;;;13.73;100.00
24336;BME280;33098;52.400;16.880;2023-10-13T05:18:45;100635.46;;;13.78;100.00
24336;BME280;33098;52.400;16.880;2023-10-13T05:21:30;100640.29;;;13.80;100.00
24336;BME280;33098;52.400;16.880;2023-10-13T05:24:16;100641.45;;;13.85;100.00
24336;BME280;33098;52.400;16.880;2023-10-13T05:27:01;100640.38;;;13.89;100.00
24336;BME280;33098;52.400;16.880;2023-10-13T05:29:47;100642.55;;;13.93;100.00
24336;BME280;33098;52.400;16.880;2023-10-13T05:32:49;100640.61;;;13.95;100.00
24336;BME280;33098;52.400;16.880;2023-10-13T05:35:35;100647.92;;;13.88;100.00
24336;BME280;33098;52.400;16.880;2023-10-13T05:38:20;100652.13;;;13.85;100.00
24336;BME280;33098;52.400;16.880;2023-10-13T05:41:06;100651.77;;;13.85;100.00
24336;BME280;33098;52.400;16.880;2023-10-13T05:43:51;100650.09;;;13.86;100.00
24336;BME280;33098;52.400;16.880;2023-10-13T05:46:36;100648.71;;;13.85;100.00
24336;BME280;33098;52.400;16.880;2023-10-13T05:49:07;100646.63;;;13.89;100.00
24336;BME280;33098;52.400;16.880;2023-10-13T05:51:37;100642.45;;;13.86;100.00
24336;BME280;33098;52.400;16.880;2023-10-13T05:54:04;100643.09;;;13.85;100.00
24336;BME280;33098;52.400;16.880;2023-10-13T05:56:50;100648.35;;;13.87;100.00
24336;BME280;33098;52.400;16.880;2023-10-13T05:59:37;100646.77;;;13.89;100.00
24336;BME280;33098;52.400;16.880;2023-10-13T06:02:24;100649.76;;;13.86;100.00
24336;BME280;33098;52.400;16.880;2023-10-13T06:05:10;100654.03;;;13.86;100.00
24336;BME280;33098;52.400;16.880;2023-10-13T06:07:57;100654.37;;;13.93;100.00
24336;BME280;33098;52.400;16.880;2023-10-13T06:10:43;100656.23;;;13.99;100.00
24336;BME280;33098;52.400;16.880;2023-10-13T06:13:29;100655.48;;;14.00;100.00
24336;BME280;33098;52.400;16.880;2023-10-13T06:16:16;100656.18;;;13.98;100.00
24336;BME280;33098;52.400;16.880;2023-10-13T06:19:02;100656.09;;;14.01;100.00
24336;BME280;33098;52.400;16.880;2023-10-13T06:21:47;100654.20;;;14.00;100.00
24336;BME280;33098;52.400;16.880;2023-10-13T06:24:32;100654.98;;;14.00;100.00
24336;BME280;33098;52.400;16.880;2023-10-13T06:27:18;100653.39;;;14.03;100.00
24336;BME280;33098;52.400;16.880;2023-10-13T06:30:04;100653.38;;;14.07;100.00
24336;BME280;33098;52.400;16.880;2023-10-13T06:32:33;100655.95;;;14.11;100.00
24336;BME280;33098;52.400;16.880;2023-10-13T06:35:00;100650.77;;;14.14;100.00
24336;BME280;33098;52.400;16.880;2023-10-13T06:37:45;100653.67;;;14.18;100.00
24336;BME280;33098;52.400;16.880;2023-10-13T06:40:12;100651.39;;;14.19;100.00
24336;BME280;33098;52.400;16.880;2023-10-13T06:43:14;100650.95;;;14.27;100.00
24336;BME280;33098;52.400;16.880;2023-10-13T06:45:47;100652.48;;;14.30;100.00
24336;BME280;33098;52.400;16.880;2023-10-13T06:48:24;100647.42;;;14.34;100.00
24336;BME280;33098;52.400;16.880;2023-10-13T06:50:52;100651.17;;;14.38;100.00
24336;BME280;33098;52.400;16.880;2023-10-13T06:53:19;100652.59;;;14.34;100.00
24336;BME280;33098;52.400;16.880;2023-10-13T06:55:46;100651.66;;;14.33;100.00
24336;BME280;33098;52.400;16.880;2023-10-13T06:58:18;100653.61;;;14.35;100.00
24336;BME280;33098;52.400;16.880;2023-10-13T07:00:50;100651.35;;;14.34;100.00
24336;BME280;33098;52.400;16.880;2023-10-13T07:03:24;100651.65;;;14.31;100.00
24336;BME280;33098;52.400;16.880;2023-10-13T07:05:51;100647.15;;;14.29;100.00
24336;BME280;33098;52.400;16.880;2023-10-13T07:08:18;100647.55;;;14.31;100.00
24336;BME280;33098;52.400;16.880;2023-10-13T07:10:54;100644.78;;;14.36;100.00
24336;BME280;33098;52.400;16.880;2023-10-13T07:13:32;100644.23;;;14.47;100.00
24336;BME280;33098;52.400;16.880;2023-10-13T07:16:03;100649.83;;;14.52;100.00
24336;BME280;33098;52.400;16.880;2023-10-13T07:18:38;100651.89;;;14.58;100.00
24336;BME280;33098;52.400;16.880;2023-10-13T07:21:16;100649.43;;;14.59;100.00
24336;BME280;33098;52.400;16.880;2023-10-13T07:23:43;100649.92;;;14.61;100.00
24336;BME280;33098;52.400;16.880;2023-10-13T07:26:27;100651.40;;;14.67;100.00
24336;BME280;33098;52.400;16.880;2023-10-13T07:28:55;100642.48;;;14.71;100.00
24336;BME280;33098;52.400;16.880;2023-10-13T07:31:21;100639.41;;;14.75;100.00
24336;BME280;33098;52.400;16.880;2023-10-13T07:33:48;100628.13;;;14.81;100.00
24336;BME280;33098;52.400;16.880;2023-10-13T07:36:14;100623.41;;;14.85;100.00
24336;BME280;33098;52.400;16.880;2023-10-13T07:38:50;100617.08;;;14.79;100.00
24336;BME280;33098;52.400;16.880;2023-10-13T07:41:36;100622.23;;;14.83;100.00
24336;BME280;33098;52.400;16.880;2023-10-13T07:44:02;100625.11;;;14.88;100.00
24336;BME280;33098;52.400;16.880;2023-10-13T07:46:31;100624.14;;;14.87;100.00
24336;BME280;33098;52.400;16.880;2023-10-13T07:48:59;100625.97;;;14.86;100.00
24336;BME280;33098;52.400;16.880;2023-10-13T07:51:37;100627.61;;;14.93;100.00
24336;BME280;33098;52.400;16.880;2023-10-13T07:54:15;100627.20;;;14.99;100.00
24336;BME280;33098;52.400;16.880;2023-10-13T07:56:48;100618.94;;;15.05;100.00
24336;BME280;33098;52.400;16.880;2023-10-13T07:59:15;100610.40;;;15.10;100.00
24336;BME280;33098;52.400;16.880;2023-10-13T08:01:41;100607.56;;;15.11;100.00
24336;BME280;33098;52.400;16.880;2023-10-13T08:04:09;100607.80;;;15.11;100.00
24336;BME280;33098;52.400;16.880;2023-10-13T08:06:38;100606.52;;;15.15;100.00
24336;BME280;33098;52.400;16.880;2023-10-13T08:09:09;100603.92;;;15.19;100.00
24336;BME280;33098;52.400;16.880;2023-10-13T08:11:56;100598.66;;;15.17;100.00
24336;BME280;33098;52.400;16.880;2023-10-13T08:14:23;100593.53;;;15.12;100.00
24336;BME280;33098;52.400;16.880;2023-10-13T08:16:59;100585.73;;;15.17;100.00
24336;BME280;33098;52.400;16.880;2023-10-13T08:19:27;100584.02;;;15.24;100.00
24336;BME280;33098;52.400;16.880;2023-10-13T08:21:59;100583.09;;;15.27;100.00
24336;BME280;33098;52.400;16.880;2023-10-13T08:24:26;100585.91;;;15.31;100.00
24336;BME280;33098;52.400;16.880;2023-10-13T08:27:18;100583.40;;;15.27;100.00
24336;BME280;33098;52.400;16.880;2023-10-13T08:30:23;100579.80;;;15.31;100.00
24336;BME280;33098;52.400;16.880;2023-10-13T08:32:52;100579.17;;;15.32;100.00
24336;BME280;33098;52.400;16.880;2023-10-13T08:35:23;100582.60;;;15.41;100.00
24336;BME280;33098;52.400;16.880;2023-10-13T08:38:05;100579.22;;;15.56;100.00
24336;BME280;33098;52.400;16.880;2023-10-13T08:40:43;100578.93;;;15.60;100.00
24336;BME280;33098;52.400;16.880;2023-10-13T08:43:32;100579.10;;;15.66;100.00
24336;BME280;33098;52.400;16.880;2023-10-13T08:46:17;100577.80;;;15.66;100.00
24336;BME280;33098;52.400;16.880;2023-10-13T08:48:58;100577.10;;;15.73;100.00
24336;BME280;33098;52.400;16.880;2023-10-13T08:51:42;100572.11;;;15.84;100.00
24336;BME280;33098;52.400;16.880;2023-10-13T08:54:17;100571.59;;;15.82;100.00
24336;BME280;33098;52.400;16.880;2023-10-13T08:57:05;100571.10;;;15.90;100.00
24336;BME280;33098;52.400;16.880;2023-10-13T09:00:01;100569.05;;;16.05;100.00
24336;BME280;33098;52.400;16.880;2023-10-13T09:02:47;100560.60;;;16.20;100.00
24336;BME280;33098;52.400;16.880;2023-10-13T09:05:27;100559.84;;;16.34;100.00
24336;BME280;33098;52.400;16.880;2023-10-13T09:08:29;100559.61;;;16.48;100.00
24336;BME280;33098;52.400;16.880;2023-10-13T09:11:03;100556.23;;;16.53;100.00
24336;BME280;33098;52.400;16.880;2023-10-13T09:13:38;100558.91;;;16.59;100.00
24336;BME280;33098;52.400;16.880;2023-10-13T09:16:11;100556.75;;;16.66;100.00
24336;BME280;33098;52.400;16.880;2023-10-13T09:19:09;100561.00;;;16.77;100.00
24336;BME280;33098;52.400;16.880;2023-10-13T09:21:38;100557.95;;;16.77;100.00
24336;BME280;33098;52.400;16.880;2023-10-13T09:24:09;100553.87;;;16.74;100.00
24336;BME280;33098;52.400;16.880;2023-10-13T09:26:48;100549.23;;;16.80;100.00
24336;BME280;33098;52.400;16.880;2023-10-13T09:29:19;100541.09;;;16.97;100.00
24336;BME280;33098;52.400;16.880;2023-10-13T09:31:47;100535.38;;;17.14;100.00
24336;BME280;33098;52.400;16.880;2023-10-13T09:34:21;100529.19;;;17.27;100.00
24336;BME280;33098;52.400;16.880;2023-10-13T09:36:50;100519.95;;;17.34;100.00
24336;BME280;33098;52.400;16.880;2023-10-13T09:39:24;100520.16;;;17.34;100.00
24336;BME280;33098;52.400;16.880;2023-10-13T09:42:01;100530.94;;;17.39;100.00
24336;BME280;33098;52.400;16.880;2023-10-13T09:44:30;100523.99;;;17.49;100.00
24336;BME280;33098;52.400;16.880;2023-10-13T09:47:01;100517.64;;;17.61;100.00
24336;BME280;33098;52.400;16.880;2023-10-13T09:49:39;100509.61;;;17.71;100.00
24336;BME280;33098;52.400;16.880;2023-10-13T09:52:15;100508.15;;;17.78;100.00
24336;BME280;33098;52.400;16.880;2023-10-13T09:55:13;100500.14;;;17.91;100.00
24336;BME280;33098;52.400;16.880;2023-10-13T09:57:49;100492.87;;;17.98;100.00
24336;BME280;33098;52.400;16.880;2023-10-13T10:00:27;100482.02;;;18.12;100.00
24336;BME280;33098;52.400;16.880;2023-10-13T10:03:07;100484.64;;;18.24;100.00
24336;BME280;33098;52.400;16.880;2023-10-13T10:06:00;100475.70;;;18.35;100.00
24336;BME280;33098;52.400;16.880;2023-10-13T10:08:42;100476.77;;;18.47;100.00
24336;BME280;33098;52.400;16.880;2023-10-13T10:11:29;100468.17;;;18.56;100.00
24336;BME280;33098;52.400;16.880;2023-10-13T10:14:09;100465.78;;;18.65;100.00
24336;BME280;33098;52.400;16.880;2023-10-13T10:17:01;100457.67;;;18.79;100.00
24336;BME280;33098;52.400;16.880;2023-10-13T10:19:48;100453.13;;;18.98;100.00
24336;BME280;33098;52.400;16.880;2023-10-13T10:22:29;100456.24;;;19.14;100.00
24336;BME280;33098;52.400;16.880;2023-10-13T10:25:04;100455.60;;;19.22;100.00
24336;BME280;33098;52.400;16.880;2023-10-13T10:27:33;100440.15;;;19.26;100.00
24336;BME280;33098;52.400;16.880;2023-10-13T10:30:00;100439.80;;;19.34;100.00
24336;BME280;33098;52.400;16.880;2023-10-13T10:32:33;100444.77;;;19.49;100.00
24336;BME280;33098;52.400;16.880;2023-10-13T10:35:05;100438.86;;;19.62;100.00
24336;BME280;33098;52.400;16.880;2023-10-13T10:37:42;100428.52;;;19.73;100.00
24336;BME280;33098;52.400;16.880;2023-10-13T10:40:15;100419.53;;;19.83;100.00
24336;BME280;33098;52.400;16.880;2023-10-13T10:43:13;100423.23;;;19.97;100.00
24336;BME280;33098;52.400;16.880;2023-10-13T10:45:47;100421.63;;;20.03;100.00
24336;BME280;33098;52.400;16.880;2023-10-13T10:48:18;100418.94;;;20.03;100.00
24336;BME280;33098;52.400;16.880;2023-10-13T10:50:51;100420.61;;;20.00;100.00
24336;BME280;33098;52.400;16.880;2023-10-13T10:53:25;100417.98;;;19.96;100.00
24336;BME280;33098;52.400;16.880;2023-10-13T10:56:06;100412.81;;;19.95;100.00
24336;BME280;33098;52.400;16.880;2023-10-13T10:58:49;100411.05;;;19.97;100.00
24336;BME280;33098;52.400;16.880;2023-10-13T11:01:25;100406.61;;;19.90;100.00
24336;BME280;33098;52.400;16.880;2023-10-13T11:04:01;100405.92;;;19.85;100.00
24336;BME280;33098;52.400;16.880;2023-10-13T11:06:35;100407.74;;;19.85;100.00
24336;BME280;33098;52.400;16.880;2023-10-13T11:09:08;100406.80;;;19.84;100.00
24336;BME280;33098;52.400;16.880;2023-10-13T11:14:30;100394.76;;;19.84;100.00
24336;BME280;33098;52.400;16.880;2023-10-13T11:16:57;100392.77;;;19.84;100.00
24336;BME280;33098;52.400;16.880;2023-10-13T11:19:34;100396.01;;;19.84;100.00
24336;BME280;33098;52.400;16.880;2023-10-13T11:22:17;100387.34;;;19.79;100.00
24336;BME280;33098;52.400;16.880;2023-10-13T11:25:03;100381.95;;;19.74;100.00
24336;BME280;33098;52.400;16.880;2023-10-13T11:27:38;100382.14;;;19.71;100.00
24336;BME280;33098;52.400;16.880;2023-10-13T11:30:17;100372.27;;;19.68;100.00
24336;BME280;33098;52.400;16.880;2023-10-13T11:32:58;100374.91;;;19.71;100.00
24336;BME280;33098;52.400;16.880;2023-10-13T11:35:25;100366.80;;;19.65;100.00
24336;BME280;33098;52.400;16.880;2023-10-13T11:37:55;100360.83;;;19.66;100.00
24336;BME280;33098;52.400;16.880;2023-10-13T11:40:40;100358.70;;;19.70;100.00
24336;BME280;33098;52.400;16.880;2023-10-13T11:43:25;100357.96;;;19.72;100.00
24336;BME280;33098;52.400;16.880;2023-10-13T11:45:52;100349.92;;;19.73;100.00
24336;BME280;33098;52.400;16.880;2023-10-13T11:48:41;100344.16;;;19.74;100.00
24336;BME280;33098;52.400;16.880;2023-10-13T11:51:11;100341.55;;;19.76;100.00
24336;BME280;33098;52.400;16.880;2023-10-13T11:53:44;100333.86;;;19.79;100.00
24336;BME280;33098;52.400;16.880;2023-10-13T11:56:20;100327.61;;;19.82;100.00
24336;BME280;33098;52.400;16.880;2023-10-13T11:58:47;100326.15;;;19.82;100.00
24336;BME280;33098;52.400;16.880;2023-10-13T12:01:15;100325.00;;;19.83;100.00
24336;BME280;33098;52.400;16.880;2023-10-13T12:03:42;100319.57;;;19.83;100.00
24336;BME280;33098;52.400;16.880;2023-10-13T12:06:29;100320.70;;;19.86;100.00
24336;BME280;33098;52.400;16.880;2023-10-13T12:09:08;100311.95;;;19.91;100.00
24336;BME280;33098;52.400;16.880;2023-10-13T12:11:55;100309.42;;;19.94;100.00
24336;BME280;33098;52.400;16.880;2023-10-13T12:14:26;100305.27;;;19.97;100.00
24336;BME280;33098;52.400;16.880;2023-10-13T12:17:03;100306.70;;;20.04;100.00
24336;BME280;33098;52.400;16.880;2023-10-13T12:19:30;100303.60;;;20.08;100.00
24336;BME280;33098;52.400;16.880;2023-10-13T12:21:57;100300.78;;;20.06;100.00
24336;BME280;33098;52.400;16.880;2023-10-13T12:24:30;100293.38;;;20.07;100.00
24336;BME280;33098;52.400;16.880;2023-10-13T12:27:03;100292.48;;;20.14;100.00
24336;BME280;33098;52.400;16.880;2023-10-13T12:29:41;100286.98;;;20.12;100.00
24336;BME280;33098;52.400;16.880;2023-10-13T12:32:15;100283.97;;;20.11;100.00
24336;BME280;33098;52.400;16.880;2023-10-13T12:34:48;100276.21;;;20.13;100.00
24336;BME280;33098;52.400;16.880;2023-10-13T12:37:31;100274.75;;;20.09;100.00
24336;BME280;33098;52.400;16.880;2023-10-13T12:40:12;100273.69;;;20.06;100.00
24336;BME280;33098;52.400;16.880;2023-10-13T12:42:58;100273.47;;;20.02;100.00
24336;BME280;33098;52.400;16.880;2023-10-13T12:45:45;100270.23;;;20.01;100.00
24336;BME280;33098;52.400;16.880;2023-10-13T12:48:34;100273.83;;;19.98;100.00
24336;BME280;33098;52.400;16.880;2023-10-13T12:51:20;100273.95;;;19.98;100.00
24336;BME280;33098;52.400;16.880;2023-10-13T12:53:48;100270.05;;;19.93;100.00
24336;BME280;33098;52.400;16.880;2023-10-13T12:56:15;100266.98;;;19.94;100.00
24336;BME280;33098;52.400;16.880;2023-10-13T12:58:43;100262.85;;;19.89;100.00
24336;BME280;33098;52.400;16.880;2023-10-13T13:01:22;100258.48;;;19.89;100.00
24336;BME280;33098;52.400;16.880;2023-10-13T13:03:50;100248.02;;;19.89;100.00
24336;BME280;33098;52.400;16.880;2023-10-13T13:06:26;100242.10;;;19.91;100.00
24336;BME280;33098;52.400;16.880;2023-10-13T13:08:54;100245.02;;;19.98;100.00
24336;BME280;33098;52.400;16.880;2023-10-13T13:11:21;100248.81;;;19.98;100.00
24336;BME280;33098;52.400;16.880;2023-10-13T13:13:48;100245.16;;;19.92;100.00
24336;BME280;33098;52.400;16.880;2023-10-13T13:16:16;100241.83;;;19.93;100.00
24336;BME280;33098;52.400;16.880;2023-10-13T13:18:50;100238.73;;;19.92;100.00
24336;BME280;33098;52.400;16.880;2023-10-13T13:21:17;100236.78;;;19.91;100.00